sensor_id;sensor_type;location;lat;lon;timestamp;pressure;altitude;pressure_sealevel;temperature;humidity
47430;BME280;33181;49.246;7.372;2023-12-20T00:00:06;98956.94;;;4.01;100.00
47430;BME280;33181;49.246;7.372;2023-12-20T00:02:32;98953.03;;;4.10;100.00
47430;BME280;33181;49.246;7.372;2023-12-20T00:04:58;98949.88;;;4.03;100.00
47430;BME280;33181;49.246;7.372;2023-12-20T00:07:24;98952.00;;;4.12;100.00
47430;BME280;33181;49.246;7.372;2023-12-20T00:09:50;98960.28;;;4.21;100.00
47430;BME280;33181;49.246;7.372;2023-12-20T00:12:15;98955.22;;;4.17;100.00
47430;BME280;33181;49.246;7.372;2023-12-20T00:14:41;98951.38;;;4.25;100.00
47430;BME280;33181;49.246;7.372;2023-12-20T00:17:07;98961.03;;;4.23;100.00
47430;BME280;33181;49.246;7.372;2023-12-20T00:19:33;98951.91;;;4.31;100.00
47430;BME280;33181;49.246;7.372;2023-12-20T00:21:59;98956.28;;;4.31;100.00
47430;BME280;33181;49.246;7.372;2023-12-20T00:24:25;98953.59;;;4.32;100.00
47430;BME280;33181;49.246;7.372;2023-12-20T00:26:51;98953.81;;;4.28;100.00
47430;BME280;33181;49.246;7.372;2023-12-20T00:29:17;98953.59;;;4.32;100.00
47430;BME280;33181;49.246;7.372;2023-12-20T00:31:42;98956.88;;;4.36;100.00
47430;BME280;33181;49.246;7.372;2023-12-20T00:34:08;98947.38;;;4.35;100.00
47430;BME280;33181;49.246;7.372;2023-12-20T00:36:34;98944.50;;;4.24;100.00
47430;BME280;33181;49.246;7.372;2023-12-20T00:39:00;98957.25;;;4.28;100.00
47430;BME280;33181;49.246;7.372;2023-12-20T00:41:25;98953.31;;;4.21;100.00
47430;BME280;33181;49.246;7.372;2023-12-20T00:43:51;98947.28;;;4.21;100.00
47430;BME280;33181;49.246;7.372;2023-12-20T00:46:17;98938.06;;;4.31;100.00
47430;BME280;33181;49.246;7.372;2023-12-20T00:48:42;98937.66;;;4.23;100.00
47430;BME280;33181;49.246;7.372;2023-12-20T00:51:11;98933.72;;;4.31;100.00
47430;BME280;33181;49.246;7.372;2023-12-20T00:53:36;98928.59;;;4.30;100.00
47430;BME280;33181;49.246;7.372;2023-12-20T00:56:02;98931.25;;;4.28;100.00
47430;BME280;33181;49.246;7.372;2023-12-20T00:58:28;98927.00;;;4.27;100.00
47430;BME280;33181;49.246;7.372;2023-12-20T01:00:54;98923.63;;;4.25;100.00
47430;BME280;33181;49.246;7.372;2023-12-20T01:03:19;98926.47;;;4.21;100.00
47430;BME280;33181;49.246;7.372;2023-12-20T01:05:45;98915.56;;;4.14;100.00
47430;BME280;33181;49.246;7.372;2023-12-20T01:08:11;98927.09;;;4.26;100.00
47430;BME280;33181;49.246;7.372;2023-12-20T01:10:38;98932.28;;;4.26;100.00
47430;BME280;33181;49.246;7.372;2023-12-20T01:13:04;98937.13;;;4.32;100.00
47430;BME280;33181;49.246;7.372;2023-12-20T01:15:29;98932.44;;;4.23;100.00
47430;BME280;33181;49.246;7.372;2023-12-20T01:17:55;98921.22;;;4.38;100.00
47430;BME280;33181;49.246;7.372;2023-12-20T01:20:22;98919.06;;;4.46;100.00
47430;BME280;33181;49.246;7.372;2023-12-20T01:22:48;98917.25;;;4.48;100.00
47430;BME280;33181;49.246;7.372;2023-12-20T01:25:13;98912.44;;;4.56;100.00
47430;BME280;33181;49.246;7.372;2023-12-20T01:27:39;98913.28;;;4.57;100.00
47430;BME280;33181;49.246;7.372;2023-12-20T01:30:05;98913.13;;;4.60;100.00
47430;BME280;33181;49.246;7.372;2023-12-20T01:32:31;98915.66;;;4.61;100.00
47430;BME280;33181;49.246;7.372;2023-12-20T01:34:57;98914.16;;;4.57;100.00
47430;BME280;33181;49.246;7.372;2023-12-20T01:37:23;98932.03;;;4.63;100.00
47430;BME280;33181;49.246;7.372;2023-12-20T01:39:50;98931.88;;;4.67;100.00
47430;BME280;33181;49.246;7.372;2023-12-20T01:42:16;98928.50;;;4.64;100.00
47430;BME280;33181;49.246;7.372;2023-12-20T01:44:42;98924.97;;;4.65;100.00
47430;BME280;33181;49.246;7.372;2023-12-20T01:47:08;98917.41;;;4.61;100.00
47430;BME280;33181;49.246;7.372;2023-12-20T01:49:34;98920.91;;;4.60;100.00
47430;BME280;33181;49.246;7.372;2023-12-20T01:52:00;98923.78;;;4.55;100.00
47430;BME280;33181;49.246;7.372;2023-12-20T01:54:28;98926.56;;;4.68;100.00
47430;BME280;33181;49.246;7.372;2023-12-20T01:56:54;98926.72;;;4.65;100.00
47430;BME280;33181;49.246;7.372;2023-12-20T01:59:21;98937.81;;;4.69;100.00
47430;BME280;33181;49.246;7.372;2023-12-20T02:01:47;98953.19;;;4.73;100.00
47430;BME280;33181;49.246;7.372;2023-12-20T02:04:13;98958.13;;;4.78;100.00
47430;BME280;33181;49.246;7.372;2023-12-20T02:06:40;98944.69;;;4.70;100.00
47430;BME280;33181;49.246;7.372;2023-12-20T02:09:07;98949.16;;;4.68;100.00
47430;BME280;33181;49.246;7.372;2023-12-20T02:11:33;98940.00;;;4.60;100.00
47430;BME280;33181;49.246;7.372;2023-12-20T02:14:01;98938.06;;;4.64;100.00
47430;BME280;33181;49.246;7.372;2023-12-20T02:16:27;98934.63;;;4.63;100.00
47430;BME280;33181;49.246;7.372;2023-12-20T02:18:54;98924.72;;;4.54;100.00
47430;BME280;33181;49.246;7.372;2023-12-20T02:21:33;98917.66;;;4.56;100.00
47430;BME280;33181;49.246;7.372;2023-12-20T02:24:02;98918.25;;;4.61;100.00
47430;BME280;33181;49.246;7.372;2023-12-20T02:26:28;98931.88;;;4.67;100.00
47430;BME280;33181;49.246;7.372;2023-12-20T02:28:54;98919.09;;;4.62;100.00
47430;BME280;33181;49.246;7.372;2023-12-20T02:31:23;98920.84;;;4.61;100.00
47430;BME280;33181;49.246;7.372;2023-12-20T02:33:49;98915.88;;;4.57;100.00
47430;BME280;33181;49.246;7.372;2023-12-20T02:36:15;98927.34;;;4.70;100.00
47430;BME280;33181;49.246;7.372;2023-12-20T02:38:41;98925.56;;;4.71;100.00
47430;BME280;33181;49.246;7.372;2023-12-20T02:41:06;98928.91;;;4.73;100.00
47430;BME280;33181;49.246;7.372;2023-12-20T02:43:32;98909.84;;;4.72;100.00
47430;BME280;33181;49.246;7.372;2023-12-20T02:45:58;98904.31;;;4.78;100.00
47430;BME280;33181;49.246;7.372;2023-12-20T02:48:24;98906.25;;;4.75;100.00
47430;BME280;33181;49.246;7.372;2023-12-20T02:50:50;98907.69;;;4.80;100.00
47430;BME280;33181;49.246;7.372;2023-12-20T02:53:16;98918.50;;;4.73;100.00
47430;BME280;33181;49.246;7.372;2023-12-20T02:55:42;98931.19;;;4.79;100.00
47430;BME280;33181;49.246;7.372;2023-12-20T02:58:07;98931.19;;;4.79;100.00
47430;BME280;33181;49.246;7.372;2023-12-20T03:00:33;98939.09;;;4.77;100.00
47430;BME280;33181;49.246;7.372;2023-12-20T03:02:59;98937.25;;;4.79;100.00
47430;BME280;33181;49.246;7.372;2023-12-20T03:05:25;98931.88;;;4.82;100.00
47430;BME280;33181;49.246;7.372;2023-12-20T03:07:51;98929.34;;;4.81;100.00
47430;BME280;33181;49.246;7.372;2023-12-20T03:10:18;98933.53;;;4.83;100.00
47430;BME280;33181;49.246;7.372;2023-12-20T03:12:44;98943.63;;;4.74;100.00
47430;BME280;33181;49.246;7.372;2023-12-20T03:15:10;98950.91;;;4.67;100.00
47430;BME280;33181;49.246;7.372;2023-12-20T03:17:36;98942.78;;;4.73;100.00
47430;BME280;33181;49.246;7.372;2023-12-20T03:20:02;98942.63;;;4.76;100.00
47430;BME280;33181;49.246;7.372;2023-12-20T03:22:28;98945.78;;;4.65;100.00
47430;BME280;33181;49.246;7.372;2023-12-20T03:24:53;98945.44;;;4.72;100.00
47430;BME280;33181;49.246;7.372;2023-12-20T03:27:19;98948.41;;;4.81;100.00
47430;BME280;33181;49.246;7.372;2023-12-20T03:29:45;98952.59;;;4.84;100.00
47430;BME280;33181;49.246;7.372;2023-12-20T03:32:10;98946.22;;;4.74;100.00
47430;BME280;33181;49.246;7.372;2023-12-20T03:34:36;98941.25;;;4.69;100.00
47430;BME280;33181;49.246;7.372;2023-12-20T03:37:02;98941.50;;;4.64;100.00
47430;BME280;33181;49.246;7.372;2023-12-20T03:39:28;98949.56;;;4.76;100.00
47430;BME280;33181;49.246;7.372;2023-12-20T03:41:53;98964.50;;;4.88;100.00
47430;BME280;33181;49.246;7.372;2023-12-20T03:44:19;98965.44;;;4.87;100.00
47430;BME280;33181;49.246;7.372;2023-12-20T03:46:46;98955.72;;;4.91;100.00
47430;BME280;33181;49.246;7.372;2023-12-20T03:49:12;98954.59;;;4.95;100.00
47430;BME280;33181;49.246;7.372;2023-12-20T03:51:37;98959.41;;;5.02;100.00
47430;BME280;33181;49.246;7.372;2023-12-20T03:54:03;98950.16;;;4.97;100.00
47430;BME280;33181;49.246;7.372;2023-12-20T03:56:29;98953.03;;;4.92;100.00
47430;BME280;33181;49.246;7.372;2023-12-20T03:58:55;98941.38;;;4.99;100.00
47430;BME280;33181;49.246;7.372;2023-12-20T04:01:20;98959.16;;;5.07;100.00
47430;BME280;33181;49.246;7.372;2023-12-20T04:03:46;98963.28;;;5.11;100.00
47430;BME280;33181;49.246;7.372;2023-12-20T04:06:19;98962.25;;;5.14;100.00
47430;BME280;33181;49.246;7.372;2023-12-20T04:08:45;98964.53;;;5.04;100.00
47430;BME280;33181;49.246;7.372;2023-12-20T04:11:11;98969.72;;;5.04;100.00
47430;BME280;33181;49.246;7.372;2023-12-20T04:13:36;98973.59;;;5.13;100.00
47430;BME280;33181;49.246;7.372;2023-12-20T04:16:02;98966.72;;;5.11;100.00
47430;BME280;33181;49.246;7.372;2023-12-20T04:18:28;98956.16;;;5.15;100.00
47430;BME280;33181;49.246;7.372;2023-12-20T04:20:54;98973.59;;;5.13;100.00
47430;BME280;33181;49.246;7.372;2023-12-20T04:23:20;98974.38;;;5.15;100.00
47430;BME280;33181;49.246;7.372;2023-12-20T04:25:46;98966.56;;;5.15;100.00
47430;BME280;33181;49.246;7.372;2023-12-20T04:28:12;98974.19;;;5.18;100.00
47430;BME280;33181;49.246;7.372;2023-12-20T04:30:38;98974.03;;;5.21;100.00
47430;BME280;33181;49.246;7.372;2023-12-20T04:33:04;98989.81;;;5.18;100.00
47430;BME280;33181;49.246;7.372;2023-12-20T04:35:29;98995.19;;;5.15;100.00
47430;BME280;33181;49.246;7.372;2023-12-20T04:37:55;98990.88;;;5.14;100.00
47430;BME280;33181;49.246;7.372;2023-12-20T04:40:21;99001.41;;;5.12;100.00
47430;BME280;33181;49.246;7.372;2023-12-20T04:42:46;98999.81;;;5.25;100.00
47430;BME280;33181;49.246;7.372;2023-12-20T04:45:12;98993.34;;;5.17;100.00
47430;BME280;33181;49.246;7.372;2023-12-20T04:47:39;99003.84;;;5.15;100.00
47430;BME280;33181;49.246;7.372;2023-12-20T04:50:05;99011.66;;;5.15;100.00
47430;BME280;33181;49.246;7.372;2023-12-20T04:52:31;99009.28;;;5.10;100.00
47430;BME280;33181;49.246;7.372;2023-12-20T04:54:57;99008.38;;;5.11;100.00
47430;BME280;33181;49.246;7.372;2023-12-20T04:57:23;99006.84;;;5.07;100.00
47430;BME280;33181;49.246;7.372;2023-12-20T04:59:48;99006.44;;;4.99;100.00
47430;BME280;33181;49.246;7.372;2023-12-20T05:02:14;99020.91;;;5.05;100.00
47430;BME280;33181;49.246;7.372;2023-12-20T05:04:40;99011.97;;;4.93;100.00
47430;BME280;33181;49.246;7.372;2023-12-20T05:07:06;99012.03;;;4.92;100.00
47430;BME280;33181;49.246;7.372;2023-12-20T05:09:32;99011.81;;;4.96;100.00
47430;BME280;33181;49.246;7.372;2023-12-20T05:11:58;99021.06;;;5.02;100.00
47430;BME280;33181;49.246;7.372;2023-12-20T05:14:25;99023.56;;;5.03;100.00
47430;BME280;33181;49.246;7.372;2023-12-20T05:16:51;99018.78;;;5.11;100.00
47430;BME280;33181;49.246;7.372;2023-12-20T05:19:17;99014.50;;;5.10;100.00
47430;BME280;33181;49.246;7.372;2023-12-20T05:21:42;99016.94;;;5.14;100.00
47430;BME280;33181;49.246;7.372;2023-12-20T05:24:08;99021.06;;;5.18;100.00
47430;BME280;33181;49.246;7.372;2023-12-20T05:26:34;99027.09;;;5.18;100.00
47430;BME280;33181;49.246;7.372;2023-12-20T05:29:00;99026.69;;;5.26;100.00
47430;BME280;33181;49.246;7.372;2023-12-20T05:31:25;99038.81;;;5.27;100.00
47430;BME280;33181;49.246;7.372;2023-12-20T05:33:51;99045.06;;;5.23;100.00
47430;BME280;33181;49.246;7.372;2023-12-20T05:36:17;99047.34;;;5.13;100.00
47430;BME280;33181;49.246;7.372;2023-12-20T05:38:42;99056.91;;;5.13;100.00
47430;BME280;33181;49.246;7.372;2023-12-20T05:41:09;99056.59;;;5.19;100.00
47430;BME280;33181;49.246;7.372;2023-12-20T05:43:35;99070.53;;;5.18;100.00
47430;BME280;33181;49.246;7.372;2023-12-20T05:46:01;99075.47;;;5.06;100.00
47430;BME280;33181;49.246;7.372;2023-12-20T05:48:27;99073.63;;;5.08;100.00
47430;BME280;33181;49.246;7.372;2023-12-20T05:50:53;99076.41;;;5.05;100.00
47430;BME280;33181;49.246;7.372;2023-12-20T05:53:18;99071.09;;;5.07;100.00
47430;BME280;33181;49.246;7.372;2023-12-20T05:55:44;99074.13;;;4.99;100.00
47430;BME280;33181;49.246;7.372;2023-12-20T05:58:10;99082.91;;;4.97;100.00
47430;BME280;33181;49.246;7.372;2023-12-20T06:00:36;99088.81;;;5.00;100.00
47430;BME280;33181;49.246;7.372;2023-12-20T06:03:01;99081.84;;;5.01;100.00
47430;BME280;33181;49.246;7.372;2023-12-20T06:05:27;99082.84;;;4.98;100.00
47430;BME280;33181;49.246;7.372;2023-12-20T06:07:53;99079.97;;;4.87;100.00
47430;BME280;33181;49.246;7.372;2023-12-20T06:10:21;99071.53;;;4.82;100.00
47430;BME280;33181;49.246;7.372;2023-12-20T06:12:47;99078.34;;;4.84;100.00
47430;BME280;33181;49.246;7.372;2023-12-20T06:15:15;99092.09;;;4.71;100.00
47430;BME280;33181;49.246;7.372;2023-12-20T06:17:41;99096.66;;;4.83;100.00
47430;BME280;33181;49.246;7.372;2023-12-20T06:20:08;99104.84;;;4.75;100.00
47430;BME280;33181;49.246;7.372;2023-12-20T06:22:35;99112.75;;;4.74;100.00
47430;BME280;33181;49.246;7.372;2023-12-20T06:25:02;99107.44;;;4.75;100.00
47430;BME280;33181;49.246;7.372;2023-12-20T06:27:28;99113.47;;;4.76;100.00
47430;BME280;33181;49.246;7.372;2023-12-20T06:29:54;99113.28;;;4.80;100.00
47430;BME280;33181;49.246;7.372;2023-12-20T06:32:20;99116.41;;;4.87;100.00
47430;BME280;33181;49.246;7.372;2023-12-20T06:34:46;99110.72;;;4.79;99.98
47430;BME280;33181;49.246;7.372;2023-12-20T06:37:12;99113.19;;;4.82;99.61
47430;BME280;33181;49.246;7.372;2023-12-20T06:39:40;99116.34;;;4.71;99.34
47430;BME280;33181;49.246;7.372;2023-12-20T06:42:06;99126.91;;;4.68;99.76
47430;BME280;33181;49.246;7.372;2023-12-20T06:44:32;99121.84;;;4.65;99.26
47430;BME280;33181;49.246;7.372;2023-12-20T06:46:58;99127.34;;;4.59;99.23
47430;BME280;33181;49.246;7.372;2023-12-20T06:49:24;99123.44;;;4.50;99.35
47430;BME280;33181;49.246;7.372;2023-12-20T06:51:49;99111.22;;;4.52;99.50
47430;BME280;33181;49.246;7.372;2023-12-20T06:54:15;99112.75;;;4.56;98.76
47430;BME280;33181;49.246;7.372;2023-12-20T06:56:41;99114.06;;;4.48;97.86
47430;BME280;33181;49.246;7.372;2023-12-20T06:59:07;99116.41;;;4.52;97.92
47430;BME280;33181;49.246;7.372;2023-12-20T07:01:32;99119.56;;;4.41;97.64
47430;BME280;33181;49.246;7.372;2023-12-20T07:03:58;99133.00;;;4.50;97.17
47430;BME280;33181;49.246;7.372;2023-12-20T07:06:24;99133.69;;;4.53;96.91
47430;BME280;33181;49.246;7.372;2023-12-20T07:08:52;99137.06;;;4.55;97.03
47430;BME280;33181;49.246;7.372;2023-12-20T07:11:17;99127.81;;;4.50;96.90
47430;BME280;33181;49.246;7.372;2023-12-20T07:13:43;99138.22;;;4.50;97.17
47430;BME280;33181;49.246;7.372;2023-12-20T07:16:10;99145.03;;;4.52;97.04
47430;BME280;33181;49.246;7.372;2023-12-20T07:18:36;99145.28;;;4.48;97.44
47430;BME280;33181;49.246;7.372;2023-12-20T07:21:02;99142.97;;;4.41;97.97
47430;BME280;33181;49.246;7.372;2023-12-20T07:23:28;99142.72;;;4.46;97.54
47430;BME280;33181;49.246;7.372;2023-12-20T07:25:53;99146.16;;;4.47;97.38
47430;BME280;33181;49.246;7.372;2023-12-20T07:28:19;99141.81;;;4.30;98.73
47430;BME280;33181;49.246;7.372;2023-12-20T07:30:45;99142.50;;;4.33;98.73
47430;BME280;33181;49.246;7.372;2023-12-20T07:33:11;99137.97;;;4.37;98.42
47430;BME280;33181;49.246;7.372;2023-12-20T07:35:38;99140.22;;;4.45;98.78
47430;BME280;33181;49.246;7.372;2023-12-20T07:38:04;99140.22;;;4.45;98.41
47430;BME280;33181;49.246;7.372;2023-12-20T07:40:32;99148.09;;;4.43;98.69
47430;BME280;33181;49.246;7.372;2023-12-20T07:42:58;99147.63;;;4.52;98.19
47430;BME280;33181;49.246;7.372;2023-12-20T07:45:24;99158.44;;;4.62;97.91
47430;BME280;33181;49.246;7.372;2023-12-20T07:47:49;99161.31;;;4.56;98.24
47430;BME280;33181;49.246;7.372;2023-12-20T07:50:16;99161.88;;;4.62;98.16
47430;BME280;33181;49.246;7.372;2023-12-20T07:52:41;99171.22;;;4.67;98.02
47430;BME280;33181;49.246;7.372;2023-12-20T07:55:07;99180.91;;;4.63;98.18
47430;BME280;33181;49.246;7.372;2023-12-20T07:57:33;99166.56;;;4.73;97.24
47430;BME280;33181;49.246;7.372;2023-12-20T07:59:59;99172.75;;;4.71;98.11
47430;BME280;33181;49.246;7.372;2023-12-20T08:02:25;99179.47;;;4.75;97.69
47430;BME280;33181;49.246;7.372;2023-12-20T08:04:50;99196.53;;;4.80;97.85
47430;BME280;33181;49.246;7.372;2023-12-20T08:07:16;99191.63;;;4.74;98.27
47430;BME280;33181;49.246;7.372;2023-12-20T08:09:42;99193.31;;;4.75;98.14
47430;BME280;33181;49.246;7.372;2023-12-20T08:12:09;99199.84;;;4.67;98.48
47430;BME280;33181;49.246;7.372;2023-12-20T08:14:35;99199.59;;;4.71;99.07
47430;BME280;33181;49.246;7.372;2023-12-20T08:17:00;99203.13;;;4.70;98.90
47430;BME280;33181;49.246;7.372;2023-12-20T08:19:26;99204.34;;;4.80;98.57
47430;BME280;33181;49.246;7.372;2023-12-20T08:21:52;99206.94;;;4.63;98.96
47430;BME280;33181;49.246;7.372;2023-12-20T08:24:17;99218.88;;;4.67;99.12
47430;BME280;33181;49.246;7.372;2023-12-20T08:26:43;99226.16;;;4.78;99.04
47430;BME280;33181;49.246;7.372;2023-12-20T08:29:09;99216.97;;;4.71;99.20
47430;BME280;33181;49.246;7.372;2023-12-20T08:31:35;99224.94;;;4.68;99.58
47430;BME280;33181;49.246;7.372;2023-12-20T08:34:00;99207.84;;;4.62;100.00
47430;BME280;33181;49.246;7.372;2023-12-20T08:36:26;99207.66;;;4.67;100.00
47430;BME280;33181;49.246;7.372;2023-12-20T08:38:52;99212.22;;;4.79;99.91
47430;BME280;33181;49.246;7.372;2023-12-20T08:41:18;99205.88;;;4.84;100.00
47430;BME280;33181;49.246;7.372;2023-12-20T08:43:43;99208.47;;;4.84;100.00
47430;BME280;33181;49.246;7.372;2023-12-20T08:46:09;99203.41;;;4.81;99.94
47430;BME280;33181;49.246;7.372;2023-12-20T08:48:35;99208.25;;;4.89;99.83
47430;BME280;33181;49.246;7.372;2023-12-20T08:51:01;99203.41;;;4.81;99.45
47430;BME280;33181;49.246;7.372;2023-12-20T08:53:26;99201.28;;;4.72;100.00
47430;BME280;33181;49.246;7.372;2023-12-20T08:55:52;99199.22;;;4.79;99.84
47430;BME280;33181;49.246;7.372;2023-12-20T08:58:18;99193.06;;;4.62;100.00
47430;BME280;33181;49.246;7.372;2023-12-20T09:00:44;99195.56;;;4.83;100.00
47430;BME280;33181;49.246;7.372;2023-12-20T09:03:10;99199.66;;;4.70;100.00
47430;BME280;33181;49.246;7.372;2023-12-20T09:05:36;99197.00;;;4.71;100.00
47430;BME280;33181;49.246;7.372;2023-12-20T09:08:02;99193.72;;;4.68;100.00
47430;BME280;33181;49.246;7.372;2023-12-20T09:10:28;99189.19;;;4.71;100.00
47430;BME280;33181;49.246;7.372;2023-12-20T09:12:54;99188.50;;;4.85;100.00
47430;BME280;33181;49.246;7.372;2023-12-20T09:15:24;99198.59;;;4.91;100.00
47430;BME280;33181;49.246;7.372;2023-12-20T09:17:50;99208.53;;;5.00;100.00
47430;BME280;33181;49.246;7.372;2023-12-20T09:20:16;99203.13;;;5.05;99.72
47430;BME280;33181;49.246;7.372;2023-12-20T09:22:42;99211.00;;;5.03;100.00
47430;BME280;33181;49.246;7.372;2023-12-20T09:25:10;99198.06;;;5.02;99.84
47430;BME280;33181;49.246;7.372;2023-12-20T09:27:37;99201.56;;;5.01;99.52
47430;BME280;33181;49.246;7.372;2023-12-20T09:30:03;99196.06;;;5.07;99.76
47430;BME280;33181;49.246;7.372;2023-12-20T09:32:31;99203.28;;;5.02;99.24
47430;BME280;33181;49.246;7.372;2023-12-20T09:34:57;99208.31;;;4.87;99.55
47430;BME280;33181;49.246;7.372;2023-12-20T09:37:26;99207.66;;;5.01;99.71
47430;BME280;33181;49.246;7.372;2023-12-20T09:39:52;99208.91;;;5.10;99.28
47430;BME280;33181;49.246;7.372;2023-12-20T09:42:26;99209.28;;;5.20;99.00
47430;BME280;33181;49.246;7.372;2023-12-20T09:44:55;99205.69;;;5.22;98.84
47430;BME280;33181;49.246;7.372;2023-12-20T09:47:25;99208.75;;;5.13;98.64
47430;BME280;33181;49.246;7.372;2023-12-20T09:49:51;99210.31;;;5.00;99.57
47430;BME280;33181;49.246;7.372;2023-12-20T09:52:19;99205.72;;;5.05;99.94
47430;BME280;33181;49.246;7.372;2023-12-20T09:54:50;99215.47;;;5.01;99.78
47430;BME280;33181;49.246;7.372;2023-12-20T09:57:18;99218.13;;;5.00;99.54
47430;BME280;33181;49.246;7.372;2023-12-20T09:59:43;99205.94;;;5.00;100.00
47430;BME280;33181;49.246;7.372;2023-12-20T10:02:13;99200.53;;;5.05;99.84
47430;BME280;33181;49.246;7.372;2023-12-20T10:04:48;99197.66;;;5.09;99.74
47430;BME280;33181;49.246;7.372;2023-12-20T10:07:15;99196.44;;;5.17;99.69
47430;BME280;33181;49.246;7.372;2023-12-20T10:09:41;99200.22;;;5.11;100.00
47430;BME280;33181;49.246;7.372;2023-12-20T10:12:07;99198.88;;;5.20;100.00
47430;BME280;33181;49.246;7.372;2023-12-20T10:14:33;99203.72;;;5.10;99.89
47430;BME280;33181;49.246;7.372;2023-12-20T10:17:06;99200.97;;;4.96;100.00
47430;BME280;33181;49.246;7.372;2023-12-20T10:19:32;99194.31;;;4.90;100.00
47430;BME280;33181;49.246;7.372;2023-12-20T10:22:04;99200.50;;;4.87;100.00
47430;BME280;33181;49.246;7.372;2023-12-20T10:24:30;99201.34;;;4.88;100.00
47430;BME280;33181;49.246;7.372;2023-12-20T10:27:07;99199.38;;;4.93;100.00
47430;BME280;33181;49.246;7.372;2023-12-20T10:29:37;99196.16;;;4.88;100.00
47430;BME280;33181;49.246;7.372;2023-12-20T10:34:49;99192.63;;;5.06;100.00
47430;BME280;33181;49.246;7.372;2023-12-20T10:37:15;99198.19;;;5.16;100.00
47430;BME280;33181;49.246;7.372;2023-12-20T10:39:43;99201.69;;;5.32;100.00
47430;BME280;33181;49.246;7.372;2023-12-20T10:42:12;99201.47;;;5.37;100.00
47430;BME280;33181;49.246;7.372;2023-12-20T10:44:38;99183.06;;;5.40;99.60
47430;BME280;33181;49.246;7.372;2023-12-20T10:47:04;99181.13;;;5.44;99.67
47430;BME280;33181;49.246;7.372;2023-12-20T10:49:32;99178.59;;;5.42;99.01
47430;BME280;33181;49.246;7.372;2023-12-20T10:52:03;99183.06;;;5.40;99.42
47430;BME280;33181;49.246;7.372;2023-12-20T10:54:29;99175.00;;;5.45;99.14
47430;BME280;33181;49.246;7.372;2023-12-20T10:56:58;99166.97;;;5.65;98.84
47430;BME280;33181;49.246;7.372;2023-12-20T10:59:24;99164.44;;;5.64;97.95
47430;BME280;33181;49.246;7.372;2023-12-20T11:01:54;99165.81;;;5.71;97.32
47430;BME280;33181;49.246;7.372;2023-12-20T11:04:44;99165.50;;;5.77;96.63
47430;BME280;33181;49.246;7.372;2023-12-20T11:07:36;99159.25;;;5.79;96.72
47430;BME280;33181;49.246;7.372;2023-12-20T11:10:13;99161.50;;;5.70;96.52
47430;BME280;33181;49.246;7.372;2023-12-20T11:12:53;99162.09;;;5.75;96.70
47430;BME280;33181;49.246;7.372;2023-12-20T11:15:20;99163.78;;;5.76;96.78
47430;BME280;33181;49.246;7.372;2023-12-20T11:17:54;99157.41;;;5.81;95.81
47430;BME280;33181;49.246;7.372;2023-12-20T11:20:34;99164.63;;;5.76;96.18
47430;BME280;33181;49.246;7.372;2023-12-20T11:23:00;99157.97;;;5.55;96.19
47430;BME280;33181;49.246;7.372;2023-12-20T11:25:27;99158.91;;;5.70;95.99
47430;BME280;33181;49.246;7.372;2023-12-20T11:28:12;99147.03;;;5.64;96.53
47430;BME280;33181;49.246;7.372;2023-12-20T11:30:43;99137.53;;;5.63;96.44
47430;BME280;33181;49.246;7.372;2023-12-20T11:33:11;99141.59;;;5.69;96.09
47430;BME280;33181;49.246;7.372;2023-12-20T11:35:36;99136.44;;;5.67;96.18
47430;BME280;33181;49.246;7.372;2023-12-20T11:38:02;99137.88;;;5.73;95.71
47430;BME280;33181;49.246;7.372;2023-12-20T11:40:28;99148.56;;;5.84;95.74
47430;BME280;33181;49.246;7.372;2023-12-20T11:42:58;99153.69;;;5.86;94.84
47430;BME280;33181;49.246;7.372;2023-12-20T11:45:25;99150.84;;;5.74;95.65
47430;BME280;33181;49.246;7.372;2023-12-20T11:47:51;99156.47;;;5.67;95.66
47430;BME280;33181;49.246;7.372;2023-12-20T11:50:20;99151.41;;;5.48;95.91
47430;BME280;33181;49.246;7.372;2023-12-20T11:52:48;99159.38;;;5.61;96.40
47430;BME280;33181;49.246;7.372;2023-12-20T11:55:15;99160.44;;;5.74;95.88
47430;BME280;33181;49.246;7.372;2023-12-20T11:57:43;99141.50;;;5.70;94.98
47430;BME280;33181;49.246;7.372;2023-12-20T12:00:09;99148.97;;;5.76;95.04
47430;BME280;33181;49.246;7.372;2023-12-20T12:02:36;99150.16;;;5.55;94.14
47430;BME280;33181;49.246;7.372;2023-12-20T12:05:01;99144.88;;;5.72;93.85
47430;BME280;33181;49.246;7.372;2023-12-20T12:07:27;99138.22;;;5.67;94.03
47430;BME280;33181;49.246;7.372;2023-12-20T12:09:53;99135.22;;;5.74;92.51
47430;BME280;33181;49.246;7.372;2023-12-20T12:12:21;99144.53;;;5.78;92.31
47430;BME280;33181;49.246;7.372;2023-12-20T12:15:17;99134.88;;;5.80;91.69
47430;BME280;33181;49.246;7.372;2023-12-20T12:18:04;99140.75;;;5.84;91.13
47430;BME280;33181;49.246;7.372;2023-12-20T12:20:31;99137.66;;;5.77;91.25
47430;BME280;33181;49.246;7.372;2023-12-20T12:23:05;99139.06;;;5.83;90.90
47430;BME280;33181;49.246;7.372;2023-12-20T12:25:35;99136.63;;;5.80;91.88
47430;BME280;33181;49.246;7.372;2023-12-20T12:28:03;99144.63;;;5.77;91.46
47430;BME280;33181;49.246;7.372;2023-12-20T12:30:29;99141.59;;;5.85;90.68
47430;BME280;33181;49.246;7.372;2023-12-20T12:32:56;99141.25;;;5.75;90.54
47430;BME280;33181;49.246;7.372;2023-12-20T12:35:22;99147.31;;;5.91;90.61
47430;BME280;33181;49.246;7.372;2023-12-20T12:37:48;99145.22;;;5.82;90.94
47430;BME280;33181;49.246;7.372;2023-12-20T12:40:16;99149.84;;;5.77;90.57
47430;BME280;33181;49.246;7.372;2023-12-20T12:42:44;99149.84;;;5.77;90.57
47430;BME280;33181;49.246;7.372;2023-12-20T12:45:11;99144.53;;;5.78;90.85
47430;BME280;33181;49.246;7.372;2023-12-20T12:47:40;99140.59;;;5.87;90.82
47430;BME280;33181;49.246;7.372;2023-12-20T12:50:06;99146.13;;;5.65;91.29
47430;BME280;33181;49.246;7.372;2023-12-20T12:52:32;99141.94;;;5.78;91.26
47430;BME280;33181;49.246;7.372;2023-12-20T12:54:58;99134.53;;;5.71;91.87
47430;BME280;33181;49.246;7.372;2023-12-20T12:57:24;99139.91;;;5.68;91.80
47430;BME280;33181;49.246;7.372;2023-12-20T12:59:50;99130.34;;;5.68;91.80
47430;BME280;33181;49.246;7.372;2023-12-20T13:02:16;99122.75;;;5.64;92.16
47430;BME280;33181;49.246;7.372;2023-12-20T13:04:42;99120.75;;;5.69;92.18